Time;durP1;ratioP1;P1;durP2;ratioP2;P2;SDS_P1;SDS_P2;PMS_P1;PMS_P2;Temp;Humidity;BMP_temperature;BMP_pressure;BME280_temperature;BME280_humidity;BME280_pressure;Samples;Min_cycle;Max_cycle;Signal;HPM_P1;HPM_P2
2020/12/14 00:01:05;;;;;;;14.47;10.00;;;3.40;99.90;;;;;;5019390;28;20185;-66
2020/12/14 00:03:32;;;;;;;11.90;8.80;;;3.60;99.90;;;;;;5013522;28;20260;-64
2020/12/14 00:05:58;;;;;;;12.03;8.70;;;3.60;99.90;;;;;;5002000;28;20470;-63
2020/12/14 00:08:23;;;;;;;12.93;9.03;;;3.50;99.90;;;;;;5013225;28;20766;-64
2020/12/14 00:10:49;;;;;;;13.43;8.50;;;3.50;99.90;;;;;;5010951;28;20176;-65
2020/12/14 00:13:15;;;;;;;10.43;7.23;;;3.50;99.90;;;;;;5015132;28;20713;-64
2020/12/14 00:15:40;;;;;;;10.37;7.80;;;3.50;99.90;;;;;;5002522;28;20192;-66
2020/12/14 00:18:06;;;;;;;8.63;7.43;;;3.60;99.90;;;;;;5019334;28;20286;-64
2020/12/14 00:20:31;;;;;;;11.80;7.73;;;3.60;99.90;;;;;;5030440;28;20180;-64
2020/12/14 00:22:57;;;;;;;10.90;7.37;;;3.80;99.90;;;;;;5013059;28;20200;-64
2020/12/14 00:25:22;;;;;;;10.23;6.93;;;3.90;99.90;;;;;;5031440;28;20219;-66
2020/12/14 00:27:48;;;;;;;11.73;7.83;;;4.00;99.90;;;;;;4997836;28;20180;-64
2020/12/14 00:30:14;;;;;;;8.37;6.37;;;4.20;99.90;;;;;;5010603;28;20583;-64
2020/12/14 00:32:39;;;;;;;9.30;6.83;;;4.30;99.90;;;;;;5010635;28;20288;-64
2020/12/14 00:35:05;;;;;;;19.57;7.00;;;4.40;99.90;;;;;;5010513;28;20649;-65
2020/12/14 00:37:30;;;;;;;9.50;7.10;;;4.40;99.90;;;;;;5010862;28;20578;-66
2020/12/14 00:39:56;;;;;;;7.70;6.73;;;4.50;99.90;;;;;;5014488;28;20183;-64
2020/12/14 00:42:22;;;;;;;8.73;7.13;;;4.40;99.90;;;;;;5014800;28;20177;-64
2020/12/14 00:44:47;;;;;;;8.90;7.10;;;4.30;99.90;;;;;;5017782;28;20176;-63
2020/12/14 00:47:15;;;;;;;8.63;6.83;;;4.30;99.90;;;;;;5034052;28;20202;-66
2020/12/14 00:49:41;;;;;;;7.97;6.93;;;4.30;99.90;;;;;;5034067;28;20167;-64
2020/12/14 00:52:07;;;;;;;13.40;7.80;;;4.30;99.90;;;;;;5018003;28;20935;-64
2020/12/14 00:54:33;;;;;;;12.60;8.73;;;4.20;99.90;;;;;;5014298;28;20238;-64
2020/12/14 00:56:59;;;;;;;12.03;7.50;;;4.10;99.90;;;;;;5014027;28;20200;-63
2020/12/14 00:59:24;;;;;;;9.23;8.23;;;4.00;99.90;;;;;;5014208;28;20418;-65
2020/12/14 01:01:54;;;;;;;12.17;8.70;;;3.70;99.90;;;;;;5026978;28;20907;-66
2020/12/14 01:04:20;;;;;;;13.87;8.07;;;3.70;99.90;;;;;;5033896;28;20518;-66
2020/12/14 01:06:46;;;;;;;12.77;8.27;;;3.50;99.90;;;;;;5023753;28;20423;-65
2020/12/14 01:09:12;;;;;;;12.23;9.10;;;3.50;99.90;;;;;;5014191;28;20498;-65
2020/12/14 01:11:37;;;;;;;12.97;8.57;;;3.50;99.90;;;;;;5013861;28;20255;-64
2020/12/14 01:14:03;;;;;;;14.87;8.30;;;3.70;99.90;;;;;;5030997;28;20661;-63
2020/12/14 01:16:29;;;;;;;12.97;8.27;;;3.90;99.90;;;;;;5029680;28;20188;-64
2020/12/14 01:18:54;;;;;;;10.80;8.03;;;4.00;99.90;;;;;;5013840;28;20258;-66
2020/12/14 01:21:23;;;;;;;11.63;8.23;;;4.00;99.90;;;;;;5028404;28;20191;-65
2020/12/14 01:23:50;;;;;;;12.83;8.20;;;4.10;99.90;;;;;;5029415;28;20670;-66
2020/12/14 01:26:15;;;;;;;10.17;8.00;;;4.00;99.90;;;;;;5013802;28;20447;-65
2020/12/14 01:28:41;;;;;;;11.67;7.67;;;4.10;99.90;;;;;;5013500;28;20465;-65
2020/12/14 01:31:07;;;;;;;11.03;7.80;;;4.10;99.90;;;;;;5013692;28;20180;-64
2020/12/14 01:33:32;;;;;;;12.93;8.27;;;4.00;99.90;;;;;;4995892;28;20545;-64
2020/12/14 01:35:58;;;;;;;10.97;7.60;;;4.00;99.90;;;;;;5013383;28;20184;-64
2020/12/14 01:38:23;;;;;;;11.30;7.70;;;3.80;99.90;;;;;;5013602;28;20207;-66
2020/12/14 01:40:49;;;;;;;10.87;7.87;;;3.80;99.90;;;;;;5013304;28;20223;-65
2020/12/14 01:43:14;;;;;;;11.17;7.70;;;3.80;99.90;;;;;;5013163;28;20632;-64
2020/12/14 01:45:40;;;;;;;15.00;9.37;;;3.80;99.90;;;;;;5013344;28;20177;-64
2020/12/14 01:48:07;;;;;;;16.87;9.17;;;3.70;99.90;;;;;;5013139;28;20212;-65
2020/12/14 01:50:35;;;;;;;8.93;7.37;;;3.60;99.90;;;;;;5012239;28;20557;-67
2020/12/14 01:53:02;;;;;;;10.63;7.70;;;3.60;99.90;;;;;;5013100;28;20415;-64
2020/12/14 01:55:39;;;;;;;10.83;7.00;;;3.70;99.90;;;;;;5013419;28;20419;-66
2020/12/14 01:58:04;;;;;;;8.77;6.97;;;3.70;99.90;;;;;;5013023;28;20459;-65
2020/12/14 02:00:30;;;;;;;9.07;7.43;;;3.80;99.90;;;;;;5013481;28;20446;-65
2020/12/14 02:02:55;;;;;;;11.37;7.43;;;3.80;99.90;;;;;;5013306;28;20176;-63
2020/12/14 02:05:21;;;;;;;9.43;7.53;;;3.80;99.90;;;;;;5012729;28;20188;-65
2020/12/14 02:07:47;;;;;;;9.40;7.43;;;3.80;99.90;;;;;;5013097;28;20639;-65
2020/12/14 02:10:13;;;;;;;10.13;7.33;;;3.80;99.90;;;;;;5012604;28;20260;-64
2020/12/14 02:12:39;;;;;;;9.10;6.90;;;3.70;99.90;;;;;;5012817;28;20419;-65
2020/12/14 02:15:05;;;;;;;10.57;7.43;;;3.60;99.90;;;;;;5012829;28;20423;-64
2020/12/14 02:17:30;;;;;;;9.43;7.10;;;3.70;99.90;;;;;;5012521;28;20683;-66
2020/12/14 02:19:56;;;;;;;7.90;6.60;;;3.70;99.90;;;;;;5012795;28;20422;-65
2020/12/14 02:22:28;;;;;;;8.47;6.67;;;3.80;99.90;;;;;;5011307;28;20283;-63
2020/12/14 02:25:07;;;;;;;7.83;6.83;;;3.80;99.90;;;;;;5013920;28;20546;-66
2020/12/14 02:27:36;;;;;;;10.70;6.77;;;3.80;99.90;;;;;;5012463;28;20204;-65
2020/12/14 02:30:03;;;;;;;8.17;6.63;;;3.80;99.90;;;;;;5012815;28;20976;-68
2020/12/14 02:32:29;;;;;;;11.00;7.03;;;3.80;99.90;;;;;;5012432;28;20413;-66
2020/12/14 02:34:56;;;;;;;9.13;6.50;;;3.70;99.90;;;;;;5012171;28;20423;-68
2020/12/14 02:37:28;;;;;;;9.30;6.90;;;3.70;99.90;;;;;;5012063;28;20467;-66
2020/12/14 02:39:54;;;;;;;9.30;6.77;;;3.70;99.90;;;;;;5011259;28;20482;-67
2020/12/14 02:42:22;;;;;;;8.50;6.23;;;3.80;99.90;;;;;;5012391;28;20407;-66
2020/12/14 02:44:48;;;;;;;8.80;6.73;;;3.80;99.90;;;;;;5012360;28;20412;-67
2020/12/14 02:47:14;;;;;;;8.00;6.23;;;3.70;99.90;;;;;;5012316;28;20454;-66
2020/12/14 02:49:40;;;;;;;8.80;6.83;;;3.70;99.90;;;;;;5012163;28;20626;-66
2020/12/14 02:52:07;;;;;;;9.83;6.40;;;3.60;99.90;;;;;;5012174;28;20514;-67
2020/12/14 02:54:33;;;;;;;8.00;6.23;;;3.50;99.90;;;;;;5012160;28;20463;-66
2020/12/14 02:56:59;;;;;;;12.00;6.60;;;3.40;99.90;;;;;;5012166;28;20461;-66
2020/12/14 02:59:25;;;;;;;8.57;5.53;;;3.30;99.90;;;;;;5011984;28;20895;-67
2020/12/14 03:01:51;;;;;;;8.50;6.00;;;3.30;99.90;;;;;;5011698;28;20195;-65
2020/12/14 03:04:19;;;;;;;8.40;5.87;;;3.40;99.90;;;;;;5011758;28;20431;-67
2020/12/14 03:06:46;;;;;;;9.27;6.37;;;3.60;99.90;;;;;;5012150;28;20423;-64
2020/12/14 03:09:12;;;;;;;9.73;7.17;;;3.70;99.90;;;;;;5012157;28;20649;-66
2020/12/14 03:11:38;;;;;;;11.13;6.93;;;3.50;99.90;;;;;;5012564;28;20423;-65
2020/12/14 03:14:08;;;;;;;7.43;5.57;;;3.60;99.90;;;;;;5012404;28;20923;-66
2020/12/14 03:16:44;;;;;;;9.47;5.27;;;3.60;99.90;;;;;;5012436;28;20506;-65
2020/12/14 03:19:10;;;;;;;7.33;5.57;;;3.60;99.90;;;;;;5011753;28;20761;-67
2020/12/14 03:21:36;;;;;;;7.57;5.10;;;3.60;99.90;;;;;;5011003;28;20419;-65
2020/12/14 03:24:09;;;;;;;7.40;6.00;;;3.70;99.90;;;;;;5014277;28;20458;-65
2020/12/14 03:26:35;;;;;;;6.97;5.20;;;3.70;99.90;;;;;;5012381;28;20252;-67
2020/12/14 03:29:01;;;;;;;9.03;5.93;;;3.70;99.90;;;;;;5012152;28;20407;-67
2020/12/14 03:31:27;;;;;;;8.27;6.67;;;3.70;99.90;;;;;;5011930;28;20185;-66
2020/12/14 03:33:54;;;;;;;8.97;6.43;;;3.60;99.90;;;;;;5011971;28;20416;-65
2020/12/14 03:36:20;;;;;;;8.43;6.27;;;3.50;99.90;;;;;;5012147;28;20255;-66
2020/12/14 03:38:50;;;;;;;9.17;6.03;;;3.40;99.90;;;;;;5011776;28;20525;-66
2020/12/14 03:41:16;;;;;;;7.90;6.03;;;3.30;99.90;;;;;;5012260;28;20507;-67
2020/12/14 03:43:42;;;;;;;7.50;6.07;;;3.20;99.90;;;;;;5011823;28;20515;-66
2020/12/14 03:46:18;;;;;;;7.07;5.40;;;3.20;99.90;;;;;;5011907;28;20499;-65
2020/12/14 03:48:43;;;;;;;5.83;5.10;;;3.30;99.90;;;;;;5011754;28;20198;-65
2020/12/14 03:51:11;;;;;;;8.70;5.83;;;3.40;99.90;;;;;;5011700;28;20415;-66
2020/12/14 03:53:37;;;;;;;5.20;4.70;;;3.40;99.90;;;;;;5011803;28;20254;-65
2020/12/14 03:56:03;;;;;;;7.13;5.30;;;3.50;99.90;;;;;;5011613;28;20427;-68
2020/12/14 03:58:28;;;;;;;9.87;7.20;;;3.50;99.90;;;;;;5011692;28;20212;-66
2020/12/14 04:00:54;;;;;;;7.43;5.23;;;3.40;99.90;;;;;;5011675;28;20188;-66
2020/12/14 04:03:22;;;;;;;5.23;4.57;;;3.20;99.90;;;;;;5011573;28;20177;-65
2020/12/14 04:05:47;;;;;;;7.40;5.00;;;3.20;99.90;;;;;;5011682;28;20181;-67
2020/12/14 04:08:13;;;;;;;5.20;4.70;;;3.10;99.90;;;;;;5011552;28;20482;-66
2020/12/14 04:10:38;;;;;;;6.67;4.93;;;2.90;99.90;;;;;;5011661;28;20650;-67
2020/12/14 04:13:04;;;;;;;7.93;5.03;;;2.80;99.90;;;;;;5010851;28;20200;-65
2020/12/14 04:15:29;;;;;;;5.80;4.70;;;2.90;99.90;;;;;;5011699;28;20179;-65
2020/12/14 04:17:55;;;;;;;6.97;5.93;;;3.00;99.90;;;;;;5011499;28;20204;-66
2020/12/14 04:20:20;;;;;;;6.93;4.93;;;3.10;99.90;;;;;;5011571;28;20200;-67
2020/12/14 04:22:49;;;;;;;7.10;4.93;;;3.10;99.90;;;;;;5011524;28;20231;-66
2020/12/14 04:25:18;;;;;;;6.07;4.70;;;3.20;99.90;;;;;;5012885;28;20335;-64
2020/12/14 04:27:45;;;;;;;5.60;4.97;;;3.30;99.90;;;;;;5030161;28;20783;-65
2020/12/14 04:30:11;;;;;;;5.37;4.47;;;3.40;99.90;;;;;;5031160;28;20414;-67
2020/12/14 04:32:38;;;;;;;6.37;4.87;;;3.50;99.90;;;;;;5031294;28;20422;-65
2020/12/14 04:35:05;;;;;;;7.40;4.90;;;3.50;99.90;;;;;;5031101;28;20513;-65
2020/12/14 04:37:31;;;;;;;6.97;4.63;;;3.50;99.90;;;;;;5030918;28;20472;-67
2020/12/14 04:39:57;;;;;;;6.77;5.17;;;3.60;99.90;;;;;;5030870;28;20903;-65
2020/12/14 04:42:23;;;;;;;7.17;4.80;;;3.60;99.90;;;;;;5030860;28;20184;-67
2020/12/14 04:44:53;;;;;;;9.17;4.90;;;3.70;99.90;;;;;;5030995;28;20633;-66
2020/12/14 04:47:19;;;;;;;7.90;4.60;;;3.60;99.90;;;;;;5023282;28;20909;-66
2020/12/14 04:49:47;;;;;;;6.40;4.70;;;3.60;99.90;;;;;;5011346;28;20501;-66
2020/12/14 04:52:13;;;;;;;6.10;4.70;;;3.50;99.90;;;;;;5011439;28;20470;-65
2020/12/14 04:54:40;;;;;;;9.37;5.47;;;3.40;99.90;;;;;;5011225;28;20427;-65
2020/12/14 04:57:08;;;;;;;7.37;5.33;;;3.40;99.90;;;;;;5011444;28;20454;-64
2020/12/14 04:59:34;;;;;;;6.47;5.47;;;3.50;99.90;;;;;;5025207;28;20536;-65
2020/12/14 05:02:05;;;;;;;7.00;5.47;;;3.50;99.90;;;;;;5030754;28;20476;-66
2020/12/14 05:04:31;;;;;;;9.20;6.00;;;3.50;99.90;;;;;;5013765;28;20423;-67
2020/12/14 05:06:57;;;;;;;8.23;5.67;;;3.50;99.90;;;;;;5011009;28;20563;-66
2020/12/14 05:09:22;;;;;;;7.37;5.50;;;3.40;99.90;;;;;;5010966;28;20669;-66
2020/12/14 05:11:48;;;;;;;7.03;4.97;;;3.30;99.90;;;;;;5013870;28;20188;-66
2020/12/14 05:14:22;;;;;;;6.30;4.90;;;3.20;99.90;;;;;;5011198;28;20299;-66
2020/12/14 05:16:48;;;;;;;4.87;4.37;;;3.20;99.90;;;;;;5009578;28;20199;-65
2020/12/14 05:19:28;;;;;;;6.67;5.07;;;3.20;99.90;;;;;;5030704;28;20418;-66
2020/12/14 05:21:55;;;;;;;7.87;5.00;;;3.10;99.90;;;;;;5009520;28;20420;-66
2020/12/14 05:24:26;;;;;;;8.80;5.30;;;3.10;99.90;;;;;;5013561;28;20489;-65
2020/12/14 05:26:53;;;;;;;7.57;4.70;;;3.20;99.90;;;;;;5013636;28;20415;-65
2020/12/14 05:29:29;;;;;;;10.40;5.53;;;3.30;99.90;;;;;;5014149;28;20963;-66
2020/12/14 05:32:05;;;;;;;6.77;5.67;;;3.40;99.90;;;;;;5014339;28;20489;-65
2020/12/14 05:34:33;;;;;;;8.73;6.53;;;3.50;99.90;;;;;;5014395;28;20434;-65
2020/12/14 05:37:00;;;;;;;9.43;6.67;;;3.50;99.90;;;;;;5014179;28;20852;-66
2020/12/14 05:39:28;;;;;;;13.10;5.93;;;3.60;99.90;;;;;;5013965;28;20423;-65
2020/12/14 05:41:53;;;;;;;9.27;6.67;;;3.60;99.90;;;;;;5014225;28;21011;-65
2020/12/14 05:44:28;;;;;;;10.50;7.20;;;3.70;99.90;;;;;;5014053;28;20463;-65
2020/12/14 05:46:54;;;;;;;10.10;7.50;;;3.80;99.90;;;;;;5014043;28;20187;-64
2020/12/14 05:49:20;;;;;;;10.87;6.57;;;3.80;99.90;;;;;;5014156;28;20785;-64
2020/12/14 05:51:46;;;;;;;9.30;6.67;;;3.90;99.90;;;;;;5013794;28;20183;-66
2020/12/14 05:54:13;;;;;;;10.33;6.17;;;3.90;99.90;;;;;;5014209;28;20522;-66
2020/12/14 05:56:41;;;;;;;8.77;6.60;;;3.80;99.90;;;;;;5013903;28;20438;-66
2020/12/14 05:59:07;;;;;;;9.37;6.70;;;3.80;99.90;;;;;;5013730;28;20420;-65
2020/12/14 06:01:33;;;;;;;7.67;6.00;;;3.80;99.90;;;;;;5013401;28;20423;-65
2020/12/14 06:04:01;;;;;;;11.03;6.57;;;3.80;99.90;;;;;;5013801;28;20434;-67
2020/12/14 06:06:30;;;;;;;8.13;6.23;;;3.80;99.90;;;;;;5013677;28;20266;-65
2020/12/14 06:09:12;;;;;;;8.20;5.90;;;3.90;99.90;;;;;;5013512;28;20420;-66
2020/12/14 06:11:38;;;;;;;9.13;6.80;;;3.90;99.90;;;;;;5013576;28;20451;-67
2020/12/14 06:14:05;;;;;;;12.57;7.00;;;4.10;99.90;;;;;;5013212;28;20450;-66
2020/12/14 06:16:39;;;;;;;8.83;7.13;;;4.10;99.90;;;;;;5013610;28;20179;-65
2020/12/14 06:19:05;;;;;;;11.53;7.53;;;4.20;99.90;;;;;;5012387;28;20431;-66
2020/12/14 06:21:37;;;;;;;9.97;7.57;;;4.20;99.90;;;;;;5013344;28;20407;-65
2020/12/14 06:24:05;;;;;;;17.17;10.07;;;4.20;99.90;;;;;;4996624;28;20189;-64
2020/12/14 06:26:33;;;;;;;13.53;8.67;;;4.20;99.90;;;;;;5013093;28;20414;-65
2020/12/14 06:28:58;;;;;;;13.27;8.33;;;4.30;99.90;;;;;;5012862;28;20467;-65
2020/12/14 06:31:38;;;;;;;11.43;8.40;;;;;;;;;;5013119;28;20420;-65
2020/12/14 06:34:05;;;;;;;14.70;9.17;;;4.20;99.90;;;;;;5013022;28;20176;-65
2020/12/14 06:36:39;;;;;;;14.67;8.50;;;4.30;99.90;;;;;;5012273;28;20419;-67
2020/12/14 06:39:27;;;;;;;9.60;8.40;;;4.30;99.90;;;;;;5012302;28;20535;-65
2020/12/14 06:42:13;;;;;;;10.77;8.17;;;4.40;99.90;;;;;;5011947;28;20419;-65
2020/12/14 06:44:42;;;;;;;12.93;9.03;;;4.40;99.90;;;;;;5012568;28;20407;-65
2020/12/14 06:47:15;;;;;;;14.90;9.47;;;4.30;99.90;;;;;;5012682;28;20485;-65
2020/12/14 06:49:42;;;;;;;12.80;8.77;;;4.20;99.90;;;;;;5012603;28;20426;-65
2020/12/14 06:52:08;;;;;;;14.43;10.47;;;4.20;99.90;;;;;;5012880;28;20454;-66
2020/12/14 06:54:45;;;;;;;18.50;11.87;;;4.30;99.90;;;;;;5012225;28;20738;-66
2020/12/14 06:57:17;;;;;;;17.43;10.17;;;4.30;99.90;;;;;;5012433;28;20447;-66
2020/12/14 06:59:55;;;;;;;11.50;9.00;;;4.40;99.90;;;;;;5012813;28;20527;-66
2020/12/14 07:02:40;;;;;;;10.40;7.80;;;4.50;99.90;;;;;;5012317;28;20427;-65
2020/12/14 07:05:29;;;;;;;16.77;10.40;;;4.50;99.90;;;;;;5012458;28;20909;-66
2020/12/14 07:07:56;;;;;;;11.20;8.27;;;4.50;99.90;;;;;;4999456;28;20452;-66
2020/12/14 07:10:29;;;;;;;11.00;7.80;;;4.50;99.90;;;;;;5011954;28;20482;-65
2020/12/14 07:12:55;;;;;;;10.93;8.80;;;4.60;99.90;;;;;;5011918;28;20420;-66
2020/12/14 07:15:28;;;;;;;11.37;8.20;;;4.60;99.90;;;;;;5011901;28;20466;-66
2020/12/14 07:18:05;;;;;;;9.67;8.53;;;4.60;99.90;;;;;;5011717;28;20815;-66
2020/12/14 07:20:32;;;;;;;9.77;8.03;;;4.70;99.90;;;;;;5011646;28;20419;-66
2020/12/14 07:23:06;;;;;;;11.93;7.90;;;4.70;99.90;;;;;;5011351;28;20422;-65
2020/12/14 07:25:33;;;;;;;12.43;8.50;;;4.70;99.90;;;;;;5013886;28;20446;-66
2020/12/14 07:27:59;;;;;;;10.73;8.50;;;4.80;99.90;;;;;;5011627;28;20477;-68
2020/12/14 07:30:25;;;;;;;9.90;8.90;;;4.80;99.90;;;;;;5011310;28;20439;-68
2020/12/14 07:32:50;;;;;;;10.23;8.23;;;4.80;99.90;;;;;;5011396;28;20612;-67
2020/12/14 07:35:16;;;;;;;11.90;9.33;;;4.80;99.90;;;;;;5010937;28;20181;-67
2020/12/14 07:37:42;;;;;;;10.30;8.87;;;4.80;99.90;;;;;;5011497;28;20208;-65
2020/12/14 07:40:09;;;;;;;13.50;9.53;;;4.70;99.90;;;;;;5011488;28;20177;-66
2020/12/14 07:42:37;;;;;;;11.73;9.77;;;4.70;99.90;;;;;;5011339;28;20179;-67
2020/12/14 07:45:13;;;;;;;13.73;9.30;;;4.60;99.90;;;;;;5012635;28;20423;-67
2020/12/14 07:47:41;;;;;;;12.93;9.37;;;4.60;99.90;;;;;;5029870;28;20504;-65
2020/12/14 07:50:07;;;;;;;14.20;10.17;;;4.60;99.90;;;;;;5030554;28;20414;-67
2020/12/14 07:52:34;;;;;;;11.27;9.70;;;4.60;99.90;;;;;;5030401;28;20427;-66
2020/12/14 07:55:00;;;;;;;12.23;9.67;;;4.60;99.90;;;;;;5030809;28;20493;-67
2020/12/14 07:57:31;;;;;;;13.77;9.17;;;4.80;99.90;;;;;;5030323;28;20447;-66
2020/12/14 07:59:57;;;;;;;10.73;8.43;;;4.90;99.90;;;;;;5030438;28;20411;-66
2020/12/14 08:02:25;;;;;;;14.20;9.20;;;5.00;99.90;;;;;;5030571;28;20433;-67
2020/12/14 08:04:50;;;;;;;12.77;9.40;;;5.00;99.90;;;;;;5030349;28;20224;-67
2020/12/14 08:07:18;;;;;;;12.07;9.10;;;5.00;99.90;;;;;;5030710;28;20406;-66
2020/12/14 08:09:48;;;;;;;10.93;9.33;;;5.00;99.90;;;;;;5030168;28;20191;-65
2020/12/14 08:12:15;;;;;;;11.00;8.40;;;5.00;99.90;;;;;;5021082;28;20420;-64
2020/12/14 08:14:41;;;;;;;11.73;9.00;;;5.10;99.90;;;;;;5021839;28;20418;-64
2020/12/14 08:17:16;;;;;;;14.17;9.60;;;5.00;99.90;;;;;;5026589;28;20463;-63
2020/12/14 08:19:44;;;;;;;15.30;9.63;;;5.00;99.90;;;;;;5017715;28;20455;-66
2020/12/14 08:22:14;;;;;;;14.87;9.20;;;5.10;99.90;;;;;;5017074;28;20914;-65
2020/12/14 08:24:42;;;;;;;11.73;9.33;;;5.20;99.90;;;;;;5018923;28;20836;-66
2020/12/14 08:27:11;;;;;;;18.10;11.80;;;5.10;99.90;;;;;;5010531;28;20514;-65
2020/12/14 08:29:49;;;;;;;19.33;12.53;;;5.10;99.90;;;;;;5010926;28;20430;-65
2020/12/14 08:32:15;;;;;;;15.00;11.23;;;5.00;99.90;;;;;;5010490;28;20434;-63
2020/12/14 08:35:19;;;;;;;17.67;10.30;;;4.90;99.90;;;;;;5010774;28;20431;-65
2020/12/14 08:37:55;;;;;;;23.40;10.23;;;5.00;99.90;;;;;;5005553;28;20216;-65
2020/12/14 08:40:20;;;;;;;13.13;8.83;;;5.00;99.90;;;;;;5010424;28;20907;-65
2020/12/14 08:42:46;;;;;;;15.43;10.70;;;5.10;99.90;;;;;;5010469;28;20427;-66
2020/12/14 08:45:14;;;;;;;15.70;9.37;;;5.10;99.90;;;;;;5010400;28;20184;-68
2020/12/14 08:47:42;;;;;;;11.97;9.37;;;5.20;99.90;;;;;;5010488;28;20185;-68
2020/12/14 08:50:10;;;;;;;13.10;9.27;;;5.20;99.90;;;;;;5009910;28;20420;-67
2020/12/14 08:52:37;;;;;;;13.30;8.87;;;5.40;99.90;;;;;;5010309;28;20427;-65
2020/12/14 08:55:03;;;;;;;13.77;9.40;;;5.40;99.90;;;;;;5010280;28;20499;-66
2020/12/14 08:57:30;;;;;;;10.90;7.83;;;5.50;99.90;;;;;;4992672;28;20565;-68
2020/12/14 09:00:10;;;;;;;13.53;7.90;;;5.60;99.90;;;;;;5012460;28;20255;-65
2020/12/14 09:02:36;;;;;;;11.67;8.00;;;5.60;99.90;;;;;;5013948;28;20421;-67
2020/12/14 09:05:34;;;;;;;11.97;6.97;;;5.70;99.90;;;;;;5013857;28;20974;-64
2020/12/14 09:08:26;;;;;;;8.67;6.33;;;5.80;99.90;;;;;;4970449;28;20427;-66
2020/12/14 09:10:57;;;;;;;14.13;6.40;;;5.90;99.90;;;;;;5010401;28;20423;-66
2020/12/14 09:13:23;;;;;;;11.83;6.63;;;5.90;99.90;;;;;;5014147;28;20447;-67
2020/12/14 09:16:00;;;;;;;8.57;5.73;;;5.90;99.90;;;;;;5013592;28;20432;-64
2020/12/14 09:18:26;;;;;;;8.83;6.30;;;6.00;99.90;;;;;;5013612;28;20674;-67
2020/12/14 09:21:03;;;;;;;7.93;5.87;;;6.00;99.90;;;;;;5013808;28;20781;-66
2020/12/14 09:23:28;;;;;;;7.77;5.57;;;6.10;99.90;;;;;;5013803;28;20429;-64
2020/12/14 09:25:54;;;;;;;7.10;5.93;;;6.10;99.90;;;;;;5011166;28;20549;-65
2020/12/14 09:28:19;;;;;;;8.87;5.80;;;6.10;99.90;;;;;;5033323;28;20283;-63
2020/12/14 09:30:45;;;;;;;7.27;5.73;;;6.00;99.90;;;;;;5015561;28;20183;-65
2020/12/14 09:33:10;;;;;;;7.57;5.27;;;6.00;99.90;;;;;;5033378;28;20528;-66
2020/12/14 09:35:37;;;;;;;9.43;4.90;;;6.00;99.90;;;;;;5033290;28;20180;-63
2020/12/14 09:38:03;;;;;;;7.37;5.03;;;6.00;99.90;;;;;;5033048;28;20196;-67
2020/12/14 09:40:29;;;;;;;10.63;5.50;;;6.00;99.90;;;;;;5033007;28;20468;-64
2020/12/14 09:42:54;;;;;;;7.80;5.47;;;6.10;99.90;;;;;;5033051;28;20175;-65
2020/12/14 09:45:20;;;;;;;7.60;5.30;;;6.10;99.90;;;;;;5033443;28;21869;-65
2020/12/14 09:48:00;;;;;;;7.80;6.00;;;6.00;99.90;;;;;;5032700;28;20290;-65
2020/12/14 09:50:45;;;;;;;8.00;6.20;;;6.00;99.90;;;;;;5032961;28;20180;-64
2020/12/14 09:53:11;;;;;;;12.27;6.30;;;6.20;99.90;;;;;;5032847;28;20438;-67
2020/12/14 09:55:36;;;;;;;6.27;5.43;;;6.30;99.90;;;;;;5032998;28;20892;-66
2020/12/14 09:58:02;;;;;;;7.90;6.07;;;6.40;99.90;;;;;;5032519;28;20545;-63
2020/12/14 10:00:28;;;;;;;10.10;6.23;;;6.30;99.90;;;;;;5014961;28;20222;-65
2020/12/14 10:02:53;;;;;;;9.40;6.03;;;6.40;99.90;;;;;;5032939;28;20202;-65
2020/12/14 10:05:19;;;;;;;8.70;5.80;;;6.40;99.90;;;;;;5032505;28;20180;-65
2020/12/14 10:07:44;;;;;;;7.13;5.63;;;6.50;99.90;;;;;;5032762;28;20659;-67
2020/12/14 10:10:10;;;;;;;12.60;8.03;;;6.50;99.90;;;;;;5031606;28;20250;-66
2020/12/14 10:12:36;;;;;;;12.47;7.00;;;6.50;99.90;;;;;;5032547;28;20183;-65
2020/12/14 10:15:02;;;;;;;7.67;5.83;;;6.50;99.90;;;;;;5021695;28;20697;-63
2020/12/14 10:17:28;;;;;;;7.23;5.80;;;6.50;99.90;;;;;;5012707;28;20531;-66
2020/12/14 10:19:54;;;;;;;7.63;5.77;;;6.50;99.90;;;;;;5012923;28;20430;-64
2020/12/14 10:22:20;;;;;;;9.00;6.00;;;6.60;99.90;;;;;;5012483;28;20176;-65
2020/12/14 10:24:46;;;;;;;6.93;5.90;;;6.60;99.90;;;;;;5013902;28;20451;-63
2020/12/14 10:27:12;;;;;;;8.60;5.87;;;6.70;99.90;;;;;;5012447;28;20760;-63
2020/12/14 10:29:38;;;;;;;12.47;5.93;;;6.70;99.90;;;;;;5011306;28;20644;-62
2020/12/14 10:32:04;;;;;;;8.10;6.27;;;6.80;99.90;;;;;;5012650;28;20451;-64
2020/12/14 10:34:30;;;;;;;7.57;5.90;;;6.70;99.90;;;;;;5012081;28;20207;-65
2020/12/14 10:36:58;;;;;;;10.80;6.20;;;6.60;99.90;;;;;;5012958;28;20583;-63
2020/12/14 10:39:27;;;;;;;8.93;6.10;;;6.70;99.90;;;;;;5012317;28;20416;-64
2020/12/14 10:41:53;;;;;;;6.40;5.80;;;6.70;99.90;;;;;;5012618;28;21647;-64
2020/12/14 10:44:18;;;;;;;10.87;6.70;;;6.80;99.90;;;;;;5012257;28;20426;-63
2020/12/14 10:46:47;;;;;;;6.67;5.93;;;7.00;99.90;;;;;;5012120;28;20180;-64
2020/12/14 10:49:13;;;;;;;9.60;6.50;;;7.20;99.90;;;;;;5012089;28;20192;-63
2020/12/14 10:51:39;;;;;;;10.30;6.47;;;7.30;99.90;;;;;;5012187;28;20431;-64
2020/12/14 10:54:04;;;;;;;11.20;6.10;;;7.40;99.90;;;;;;5011981;28;20172;-63
2020/12/14 10:56:30;;;;;;;8.50;6.53;;;7.30;99.90;;;;;;5011968;28;20180;-63
2020/12/14 10:58:56;;;;;;;12.30;7.00;;;7.30;99.90;;;;;;5011978;28;20658;-64
2020/12/14 11:01:22;;;;;;;11.27;7.33;;;7.40;99.90;;;;;;5010642;28;20179;-63
2020/12/14 11:03:48;;;;;;;10.13;6.63;;;7.40;99.90;;;;;;5011773;28;20239;-63
2020/12/14 11:06:13;;;;;;;11.37;6.97;;;7.50;99.90;;;;;;5011844;28;20895;-64
2020/12/14 11:08:39;;;;;;;12.87;7.57;;;7.50;99.90;;;;;;5011977;28;20582;-64
2020/12/14 11:11:04;;;;;;;10.97;6.57;;;7.50;99.90;;;;;;5011726;28;20258;-63
2020/12/14 11:13:30;;;;;;;11.07;6.33;;;7.60;99.90;;;;;;5011806;28;20535;-64
2020/12/14 11:15:56;;;;;;;10.57;6.20;;;7.90;99.90;;;;;;5011851;28;20634;-63
2020/12/14 11:18:28;;;;;;;9.60;5.83;;;7.90;99.90;;;;;;5011423;28;20199;-63
2020/12/14 11:20:53;;;;;;;14.07;6.10;;;8.00;99.90;;;;;;5011845;28;20184;-63
2020/12/14 11:23:22;;;;;;;11.10;6.33;;;8.10;99.90;;;;;;5011693;28;20458;-64
2020/12/14 11:25:54;;;;;;;9.60;5.87;;;8.10;99.90;;;;;;5015705;28;20207;-63
2020/12/14 11:28:19;;;;;;;7.13;5.30;;;8.20;99.90;;;;;;5025529;28;20415;-65
2020/12/14 11:30:45;;;;;;;7.73;5.40;;;8.20;99.90;;;;;;5013381;28;20790;-64
2020/12/14 11:33:11;;;;;;;10.80;5.93;;;8.20;99.90;;;;;;5022958;28;20627;-63
2020/12/14 11:35:36;;;;;;;7.80;5.30;;;8.10;99.90;;;;;;5011240;28;20168;-64
2020/12/14 11:38:02;;;;;;;7.10;5.10;;;8.20;99.90;;;;;;5011361;28;20287;-64
2020/12/14 11:40:27;;;;;;;9.70;4.93;;;8.20;99.80;;;;;;5011390;28;20192;-64
2020/12/14 11:42:53;;;;;;;8.37;5.03;;;8.20;99.40;;;;;;5025111;28;20183;-64
2020/12/14 11:45:18;;;;;;;8.17;5.10;;;8.20;99.60;;;;;;5011016;28;20702;-63
2020/12/14 11:47:44;;;;;;;5.83;4.83;;;8.20;99.20;;;;;;5011157;28;20204;-63
2020/12/14 11:50:10;;;;;;;6.53;5.03;;;8.20;99.70;;;;;;5011399;28;20259;-63
2020/12/14 11:52:35;;;;;;;6.97;4.97;;;8.30;99.70;;;;;;5019301;28;20561;-63
2020/12/14 11:55:03;;;;;;;8.43;5.80;;;8.30;99.30;;;;;;5011316;28;20231;-65
2020/12/14 11:57:28;;;;;;;13.00;5.50;;;8.30;99.10;;;;;;5011199;28;20235;-64
2020/12/14 11:59:54;;;;;;;8.73;5.30;;;8.30;99.20;;;;;;5011299;28;20423;-63
2020/12/14 12:02:20;;;;;;;6.57;5.17;;;8.30;99.00;;;;;;5030735;28;20172;-64
2020/12/14 12:04:47;;;;;;;7.70;5.40;;;8.20;99.00;;;;;;5030400;28;20545;-65
2020/12/14 12:07:13;;;;;;;7.73;4.90;;;8.20;99.70;;;;;;5030680;28;20477;-65
2020/12/14 12:09:38;;;;;;;9.07;5.53;;;8.20;99.30;;;;;;5030490;28;20414;-64
2020/12/14 12:12:04;;;;;;;6.97;5.30;;;8.30;99.70;;;;;;5030541;28;20537;-64
2020/12/14 12:14:31;;;;;;;7.43;5.27;;;8.40;99.40;;;;;;5030818;28;20179;-63
2020/12/14 12:16:57;;;;;;;8.77;4.80;;;8.50;99.40;;;;;;5030495;28;20184;-63
2020/12/14 12:19:22;;;;;;;5.33;4.53;;;8.40;98.90;;;;;;5020182;28;20826;-63
2020/12/14 12:21:49;;;;;;;9.83;4.90;;;8.50;99.20;;;;;;5010706;28;20184;-63
2020/12/14 12:24:15;;;;;;;8.13;5.00;;;8.40;98.90;;;;;;5010971;28;20231;-63
2020/12/14 12:26:41;;;;;;;5.90;4.87;;;8.40;99.00;;;;;;5011941;28;20534;-64
2020/12/14 12:29:09;;;;;;;8.03;5.23;;;8.40;99.10;;;;;;5010358;28;20423;-64
2020/12/14 12:31:35;;;;;;;6.10;5.37;;;8.50;99.00;;;;;;5010746;28;20529;-64
2020/12/14 12:34:00;;;;;;;8.13;4.90;;;8.50;99.50;;;;;;5011718;28;20447;-64
2020/12/14 12:36:26;;;;;;;6.97;4.97;;;8.50;99.50;;;;;;5014930;28;20180;-63
2020/12/14 12:38:51;;;;;;;8.40;4.50;;;8.50;98.90;;;;;;5014484;28;20290;-64
2020/12/14 12:41:17;;;;;;;6.77;4.53;;;8.60;99.30;;;;;;5014690;28;20180;-64
2020/12/14 12:43:43;;;;;;;8.60;5.83;;;8.60;99.30;;;;;;5014554;28;20180;-64
2020/12/14 12:46:08;;;;;;;10.10;5.63;;;8.60;99.10;;;;;;5014323;28;20598;-64
2020/12/14 12:48:34;;;;;;;12.93;7.93;;;8.60;98.60;;;;;;5014733;28;20184;-64
2020/12/14 12:51:02;;;;;;;9.87;6.60;;;8.60;98.90;;;;;;5014591;28;20255;-64
2020/12/14 12:53:27;;;;;;;6.93;4.77;;;8.60;99.10;;;;;;5014141;28;20630;-64
2020/12/14 12:55:54;;;;;;;6.43;4.93;;;8.60;99.20;;;;;;5013878;28;20490;-64